createdAt,value
2018-09-08T00:00:55.244Z,0.00
2018-09-08T00:01:55.197Z,0.00
2018-09-08T00:02:55.183Z,0.00
2018-09-08T00:03:55.158Z,0.00
2018-09-08T00:04:55.144Z,0.00
2018-09-08T00:05:55.129Z,0.00
2018-09-08T00:06:55.123Z,0.00
2018-09-08T00:07:55.094Z,0.00
2018-09-08T00:08:55.070Z,0.00
2018-09-08T00:09:55.051Z,0.00
2018-09-08T00:10:55.038Z,0.00
2018-09-08T00:11:55.035Z,0.00
2018-09-08T00:12:55.004Z,0.00
2018-09-08T00:13:54.985Z,0.00
2018-09-08T00:14:54.969Z,0.00
2018-09-08T00:15:54.948Z,0.00
2018-09-08T00:16:54.950Z,0.00
2018-09-08T00:17:54.931Z,0.00
2018-09-08T00:18:54.893Z,0.00
2018-09-08T00:19:54.870Z,0.00
2018-09-08T00:20:54.857Z,0.00
2018-09-08T00:21:54.837Z,0.00
2018-09-08T00:22:54.841Z,0.00
2018-09-08T00:23:54.809Z,0.00
2018-09-08T00:24:54.794Z,0.00
2018-09-08T00:25:54.767Z,0.00
2018-09-08T00:26:54.765Z,0.00
2018-09-08T00:27:54.738Z,0.00
2018-09-08T00:28:54.719Z,0.00
2018-09-08T00:29:54.697Z,0.00
2018-09-08T00:30:54.676Z,0.00
2018-09-08T00:31:54.672Z,0.00
2018-09-08T00:32:54.659Z,0.00
2018-09-08T00:33:54.624Z,0.00
2018-09-08T00:34:54.624Z,0.00
2018-09-08T00:35:54.593Z,0.00
2018-09-08T00:36:54.579Z,0.00
2018-09-08T00:37:54.581Z,0.00
2018-09-08T00:38:54.545Z,0.00
2018-09-08T00:39:54.529Z,0.00
2018-09-08T00:40:54.502Z,0.00
2018-09-08T00:41:54.495Z,0.00
2018-09-08T00:42:54.492Z,0.00
2018-09-08T00:43:54.451Z,0.00
2018-09-08T00:44:54.440Z,0.00
2018-09-08T00:45:54.434Z,0.00
2018-09-08T00:46:54.406Z,0.00
2018-09-08T00:47:54.374Z,0.00
2018-09-08T00:48:54.371Z,0.00
2018-09-08T00:49:54.340Z,0.00
2018-09-08T00:50:54.321Z,0.00
2018-09-08T00:51:54.307Z,0.00
2018-09-08T00:52:54.322Z,0.00
2018-09-08T00:53:54.264Z,0.00
2018-09-08T00:54:54.248Z,0.00
2018-09-08T00:55:54.240Z,0.00
2018-09-08T00:56:54.226Z,0.00
2018-09-08T00:57:54.206Z,0.00
2018-09-08T00:58:54.179Z,0.00
2018-09-08T00:59:54.175Z,0.00
2018-09-08T01:00:54.140Z,0.00
2018-09-08T01:01:54.160Z,0.00
2018-09-08T01:02:54.105Z,0.00
2018-09-08T01:03:54.190Z,0.00
2018-09-08T01:04:54.094Z,0.00
2018-09-08T01:05:54.057Z,0.00
2018-09-08T01:06:54.038Z,0.00
2018-09-08T01:07:54.015Z,0.00
2018-09-08T01:08:53.996Z,0.00
2018-09-08T01:09:53.984Z,0.00
2018-09-08T01:10:53.983Z,0.00
2018-09-08T01:11:53.965Z,0.00
2018-09-08T01:12:53.950Z,0.00
2018-09-08T01:13:53.925Z,0.00
2018-09-08T01:14:53.898Z,0.00
2018-09-08T01:15:53.884Z,0.00
2018-09-08T01:16:53.860Z,0.00
2018-09-08T01:17:53.836Z,0.00
2018-09-08T01:18:53.827Z,0.00
2018-09-08T01:19:53.824Z,0.00
2018-09-08T01:20:53.785Z,0.00
2018-09-08T01:21:53.769Z,0.00
2018-09-08T01:22:53.752Z,0.00
2018-09-08T01:23:53.727Z,0.00
2018-09-08T01:24:53.738Z,0.00
2018-09-08T01:25:53.698Z,0.00
2018-09-08T01:26:53.675Z,0.00
2018-09-08T01:27:53.660Z,0.00
2018-09-08T01:28:53.653Z,0.00
2018-09-08T01:29:53.660Z,0.00
2018-09-08T01:30:53.609Z,0.00
2018-09-08T01:31:53.601Z,0.00
2018-09-08T01:32:53.581Z,0.00
2018-09-08T01:33:53.549Z,0.00
2018-09-08T01:34:53.557Z,0.00
2018-09-08T01:35:53.535Z,0.00
2018-09-08T01:36:53.501Z,0.00
2018-09-08T01:37:53.485Z,0.00
2018-09-08T01:38:53.470Z,0.00
2018-09-08T01:39:53.473Z,0.00
2018-09-08T01:40:53.427Z,0.00
2018-09-08T01:41:53.405Z,0.00
2018-09-08T01:42:53.393Z,0.00
2018-09-08T01:43:53.374Z,0.00
2018-09-08T01:44:53.354Z,0.00
2018-09-08T01:45:53.358Z,0.00
2018-09-08T01:46:53.354Z,0.00
2018-09-08T01:47:53.303Z,0.00
2018-09-08T01:48:53.278Z,0.00
2018-09-08T01:49:53.276Z,0.00
2018-09-08T01:50:53.246Z,0.00
2018-09-08T01:51:53.246Z,0.00
2018-09-08T01:52:53.206Z,0.00
2018-09-08T01:53:53.188Z,0.00
2018-09-08T01:54:53.177Z,0.00
2018-09-08T01:55:53.153Z,0.00
2018-09-08T01:56:53.148Z,0.00
2018-09-08T01:57:53.130Z,0.00
2018-09-08T01:58:53.104Z,0.00
2018-09-08T01:59:53.083Z,0.00
2018-09-08T02:00:53.079Z,0.00
2018-09-08T02:01:53.055Z,0.00
2018-09-08T02:02:53.038Z,0.00
2018-09-08T02:03:53.033Z,0.00
2018-09-08T02:04:52.993Z,0.00
2018-09-08T02:05:52.989Z,0.00
2018-09-08T02:06:52.964Z,0.00
2018-09-08T02:07:52.940Z,0.00
2018-09-08T02:08:52.935Z,0.00
2018-09-08T02:09:52.910Z,0.00
2018-09-08T02:10:52.885Z,0.00
2018-09-08T02:11:52.875Z,0.00
2018-09-08T02:12:52.852Z,0.00
2018-09-08T02:13:52.832Z,0.00
2018-09-08T02:14:52.829Z,0.00
2018-09-08T02:15:52.794Z,0.00
2018-09-08T02:16:52.778Z,0.00
2018-09-08T02:17:52.762Z,0.00
2018-09-08T02:18:52.745Z,0.00
2018-09-08T02:19:52.725Z,0.00
2018-09-08T02:20:52.723Z,0.00
2018-09-08T02:22:13.699Z,0.00
2018-09-08T02:22:52.671Z,0.00
2018-09-08T02:23:52.658Z,0.00
2018-09-08T02:24:52.639Z,0.00
2018-09-08T02:25:52.615Z,0.00
2018-09-08T02:26:52.615Z,0.00
2018-09-08T02:27:52.581Z,0.00
2018-09-08T02:28:52.560Z,0.00
2018-09-08T02:29:52.551Z,0.00
2018-09-08T02:30:52.538Z,0.00
2018-09-08T02:31:52.510Z,0.00
2018-09-08T02:32:52.502Z,0.00
2018-09-08T02:33:52.480Z,0.00
2018-09-08T02:34:52.452Z,0.00
2018-09-08T02:35:52.441Z,0.00
2018-09-08T02:36:52.445Z,0.00
2018-09-08T02:37:52.405Z,0.00
2018-09-08T02:38:52.396Z,0.00
2018-09-08T02:39:52.361Z,0.00
2018-09-08T02:40:52.347Z,0.00
2018-09-08T02:41:52.342Z,0.00
2018-09-08T02:42:52.325Z,0.00
2018-09-08T02:43:52.307Z,0.00
2018-09-08T02:44:52.269Z,0.00
2018-09-08T02:45:52.255Z,0.00
2018-09-08T02:46:52.235Z,0.00
2018-09-08T02:47:52.218Z,0.00
2018-09-08T02:48:52.211Z,0.00
2018-09-08T02:49:52.187Z,0.00
2018-09-08T02:50:52.169Z,0.00
2018-09-08T02:51:52.143Z,0.00
2018-09-08T02:52:52.152Z,0.00
2018-09-08T02:53:52.136Z,0.00
2018-09-08T02:54:52.097Z,0.00
2018-09-08T02:55:52.078Z,0.00
2018-09-08T02:56:52.052Z,0.00
2018-09-08T02:57:52.041Z,0.00
2018-09-08T02:58:52.020Z,0.00
2018-09-08T02:59:52.021Z,0.00
2018-09-08T03:00:51.985Z,0.00
2018-09-08T03:01:51.973Z,0.00
2018-09-08T03:02:51.953Z,0.00
2018-09-08T03:03:51.935Z,0.00
2018-09-08T03:04:51.933Z,0.00
2018-09-08T03:05:51.918Z,0.00
2018-09-08T03:06:51.883Z,0.00
2018-09-08T03:07:51.862Z,0.00
2018-09-08T03:08:51.840Z,0.00
2018-09-08T03:09:51.848Z,0.00
2018-09-08T03:10:51.807Z,0.00
2018-09-08T03:11:51.790Z,0.00
2018-09-08T03:12:51.768Z,0.00
2018-09-08T03:13:51.751Z,0.00
2018-09-08T03:14:51.733Z,0.00
2018-09-08T03:15:51.734Z,0.00
2018-09-08T03:16:51.696Z,0.00
2018-09-08T03:17:51.673Z,0.00
2018-09-08T03:18:51.660Z,0.00
2018-09-08T03:19:51.643Z,0.00
2018-09-08T03:20:51.621Z,0.00
2018-09-08T03:21:51.631Z,0.00
2018-09-08T03:22:51.604Z,0.00
2018-09-08T03:23:51.568Z,0.00
2018-09-08T03:24:51.556Z,0.00
2018-09-08T03:25:51.555Z,0.00
2018-09-08T03:26:51.524Z,0.00
2018-09-08T03:27:51.527Z,0.00
2018-09-08T03:28:51.482Z,0.00
2018-09-08T03:29:51.467Z,0.00
2018-09-08T03:30:51.455Z,0.00
2018-09-08T03:31:51.424Z,0.00
2018-09-08T03:32:51.426Z,0.00
2018-09-08T03:33:51.398Z,0.00
2018-09-08T03:34:51.374Z,0.00
2018-09-08T03:35:51.355Z,0.00
2018-09-08T03:36:51.335Z,0.00
2018-09-08T03:37:51.350Z,0.00
2018-09-08T03:38:51.325Z,0.00
2018-09-08T03:39:51.281Z,0.00
2018-09-08T03:40:51.265Z,0.00
2018-09-08T03:41:51.265Z,0.00
2018-09-08T03:42:51.230Z,0.00
2018-09-08T03:43:51.213Z,0.00
2018-09-08T03:44:51.209Z,0.00
2018-09-08T03:45:51.176Z,0.00
2018-09-08T03:46:51.175Z,0.00
2018-09-08T03:47:51.138Z,0.00
2018-09-08T03:48:51.133Z,0.00
2018-09-08T03:49:51.115Z,0.00
2018-09-08T03:50:51.089Z,0.00
2018-09-08T03:51:51.073Z,0.00
2018-09-08T03:52:51.050Z,0.00
2018-09-08T03:53:51.028Z,0.00
2018-09-08T03:54:51.038Z,0.00
2018-09-08T03:55:50.997Z,0.00
2018-09-08T03:56:50.980Z,0.00
2018-09-08T03:57:50.962Z,0.00
2018-09-08T03:58:50.945Z,0.00
2018-09-08T03:59:50.930Z,0.00
2018-09-08T04:00:50.919Z,0.00
2018-09-08T04:01:50.898Z,0.00
2018-09-08T04:02:50.872Z,0.00
2018-09-08T04:03:50.856Z,0.00
2018-09-08T04:04:50.844Z,0.00
2018-09-08T04:05:50.819Z,0.00
2018-09-08T04:06:50.800Z,0.00
2018-09-08T04:07:50.783Z,0.00
2018-09-08T04:08:50.762Z,0.00
2018-09-08T04:10:11.757Z,0.00
2018-09-08T04:10:50.728Z,0.00
2018-09-08T04:11:50.724Z,0.00
2018-09-08T04:12:50.693Z,0.00
2018-09-08T04:13:50.672Z,0.00
2018-09-08T04:14:50.687Z,0.00
2018-09-08T04:15:50.660Z,0.00
2018-09-08T04:16:50.621Z,0.00
2018-09-08T04:17:50.614Z,0.00
2018-09-08T04:18:50.586Z,0.00
2018-09-08T04:19:50.571Z,0.00
2018-09-08T04:20:50.557Z,0.00
2018-09-08T04:21:50.532Z,0.00
2018-09-08T04:22:50.515Z,0.00
2018-09-08T04:23:50.493Z,0.00
2018-09-08T04:24:50.470Z,0.00
2018-09-08T04:25:50.491Z,0.00
2018-09-08T04:26:50.438Z,0.00
2018-09-08T04:27:50.424Z,0.00
2018-09-08T04:28:50.407Z,0.00
2018-09-08T04:29:50.382Z,0.00
2018-09-08T04:30:50.378Z,0.00
2018-09-08T04:31:50.376Z,0.00
2018-09-08T04:32:50.347Z,0.00
2018-09-08T04:33:50.309Z,0.00
2018-09-08T04:34:50.293Z,0.00
2018-09-08T04:35:50.280Z,0.00
2018-09-08T04:36:51.950Z,0.00
2018-09-08T04:37:50.252Z,0.00
2018-09-08T04:38:50.229Z,0.00
2018-09-08T04:39:50.209Z,4.00
2018-09-08T04:40:50.208Z,4.00
2018-09-08T04:41:50.189Z,0.00
2018-09-08T04:42:50.157Z,0.00
2018-09-08T04:43:50.129Z,0.00
2018-09-08T04:44:50.109Z,4.00
2018-09-08T04:45:50.108Z,4.00
2018-09-08T04:46:50.094Z,0.00
2018-09-08T04:47:50.090Z,4.00
2018-09-08T04:48:50.037Z,4.00
2018-09-08T04:49:50.024Z,8.00
2018-09-08T04:50:50.006Z,4.00
2018-09-08T04:51:49.982Z,8.00
2018-09-08T04:52:49.986Z,4.00
2018-09-08T04:53:49.968Z,8.00
2018-09-08T04:54:49.940Z,12.00
2018-09-08T04:55:49.911Z,8.00
2018-09-08T04:56:49.908Z,12.00
2018-09-08T04:57:49.893Z,12.00
2018-09-08T04:58:49.883Z,16.00
2018-09-08T04:59:49.874Z,16.00
2018-09-08T05:00:49.870Z,20.00
2018-09-08T05:01:49.809Z,16.00
2018-09-08T05:02:49.791Z,16.00
2018-09-08T05:03:49.771Z,20.00
2018-09-08T05:04:49.752Z,20.00
2018-09-08T05:05:49.760Z,24.00
2018-09-08T05:06:49.719Z,24.00
2018-09-08T05:07:49.699Z,28.00
2018-09-08T05:08:49.697Z,28.00
2018-09-08T05:09:49.664Z,28.00
2018-09-08T05:10:49.642Z,32.00
2018-09-08T05:11:49.627Z,32.00
2018-09-08T05:12:49.604Z,32.00
2018-09-08T05:13:49.607Z,36.00
2018-09-08T05:14:49.569Z,36.00
2018-09-08T05:15:49.555Z,44.00
2018-09-08T05:16:49.535Z,44.00
2018-09-08T05:17:49.520Z,44.00
2018-09-08T05:18:49.514Z,48.00
2018-09-08T05:19:49.479Z,48.00
2018-09-08T05:20:49.466Z,48.00
2018-09-08T05:21:49.445Z,48.00
2018-09-08T05:22:49.428Z,52.00
2018-09-08T05:23:49.405Z,56.00
2018-09-08T05:24:49.406Z,56.00
2018-09-08T05:25:49.393Z,60.00
2018-09-08T05:26:49.352Z,60.00
2018-09-08T05:27:49.334Z,64.00
2018-09-08T05:28:49.323Z,68.00
2018-09-08T05:29:49.309Z,68.00
2018-09-08T05:30:49.303Z,72.00
2018-09-08T05:31:49.262Z,72.00
2018-09-08T05:32:49.243Z,76.00
2018-09-08T05:33:49.226Z,76.00
2018-09-08T05:35:49.207Z,76.00
2018-09-08T05:36:49.166Z,84.00
2018-09-08T05:37:49.165Z,84.00
2018-09-08T05:38:49.140Z,84.00
2018-09-08T05:39:49.117Z,84.00
2018-09-08T05:40:49.121Z,88.00
2018-09-08T05:41:49.087Z,92.00
2018-09-08T05:42:49.070Z,96.00
2018-09-08T05:43:49.047Z,96.00
2018-09-08T05:44:49.030Z,96.00
2018-09-08T05:45:49.030Z,100.00
2018-09-08T05:46:48.994Z,100.00
2018-09-08T05:47:48.993Z,104.00
2018-09-08T05:48:48.974Z,108.00
2018-09-08T05:49:48.944Z,112.00
2018-09-08T05:50:48.929Z,112.00
2018-09-08T05:51:48.920Z,116.00
2018-09-08T05:52:48.889Z,116.00
2018-09-08T05:53:48.881Z,116.00
2018-09-08T05:54:48.852Z,120.00
2018-09-08T05:55:48.835Z,120.00
2018-09-08T05:56:48.843Z,124.00
2018-09-08T05:57:48.793Z,124.00
2018-09-08T05:58:48.780Z,124.00
2018-09-08T05:59:48.768Z,128.00
2018-09-08T06:00:48.746Z,128.00
2018-09-08T06:01:48.739Z,132.00
2018-09-08T06:02:48.706Z,132.00
2018-09-08T06:03:48.690Z,132.00
2018-09-08T06:04:50.399Z,136.00
2018-09-08T06:05:48.655Z,136.00
2018-09-08T06:06:48.649Z,140.00
2018-09-08T06:07:48.643Z,140.00
2018-09-08T06:08:48.597Z,140.00
2018-09-08T06:09:49.433Z,144.00
2018-09-08T06:10:48.566Z,140.00
2018-09-08T06:11:48.550Z,140.00
2018-09-08T06:12:49.936Z,140.00
2018-09-08T06:13:48.546Z,144.00
2018-09-08T06:14:48.491Z,144.00
2018-09-08T06:15:48.475Z,144.00
2018-09-08T06:16:51.399Z,144.00
2018-09-08T06:17:48.446Z,148.00
2018-09-08T06:18:49.401Z,152.00
2018-09-08T06:19:48.405Z,152.00
2018-09-08T06:20:48.393Z,152.00
2018-09-08T06:21:48.374Z,156.00
2018-09-08T06:22:48.357Z,156.00
2018-09-08T06:23:48.369Z,160.00
2018-09-08T06:24:48.318Z,160.00
2018-09-08T06:25:48.305Z,160.00
2018-09-08T06:26:48.287Z,160.00
2018-09-08T06:27:48.287Z,160.00
2018-09-08T06:28:48.275Z,168.00
2018-09-08T06:29:48.252Z,168.00
2018-09-08T06:30:48.222Z,172.00
2018-09-08T06:31:48.263Z,172.00
2018-09-08T06:32:48.937Z,176.00
2018-09-08T06:33:48.223Z,184.00
2018-09-08T06:34:48.145Z,192.00
2018-09-08T06:35:48.146Z,200.00
2018-09-08T06:36:48.109Z,208.00
2018-09-08T06:37:48.095Z,212.00
2018-09-08T06:38:48.076Z,216.00
2018-09-08T06:39:48.077Z,220.00
2018-09-08T06:40:48.042Z,224.00
2018-09-08T06:41:48.025Z,220.00
2018-09-08T06:42:48.009Z,224.00
2018-09-08T06:43:47.985Z,220.00
2018-09-08T06:44:48.044Z,216.00
2018-09-08T06:45:47.970Z,220.00
2018-09-08T06:46:47.936Z,216.00
2018-09-08T06:47:47.916Z,212.00
2018-09-08T06:48:47.904Z,208.00
2018-09-08T06:49:47.882Z,208.00
2018-09-08T06:50:47.899Z,200.00
2018-09-08T06:51:47.849Z,204.00
2018-09-08T06:52:48.446Z,212.00
2018-09-08T06:53:47.819Z,212.00
2018-09-08T06:54:47.805Z,220.00
2018-09-08T06:55:47.780Z,220.00
2018-09-08T06:56:47.780Z,228.00
2018-09-08T06:57:47.773Z,232.00
2018-09-08T06:58:47.727Z,232.00
2018-09-08T06:59:47.711Z,236.00
2018-09-08T07:00:47.699Z,236.00
2018-09-08T07:01:47.695Z,248.00
2018-09-08T07:02:47.667Z,256.00
2018-09-08T07:03:47.641Z,264.00
2018-09-08T07:04:47.632Z,260.00
2018-09-08T07:05:47.609Z,268.00
2018-09-08T07:06:47.631Z,272.00
2018-09-08T07:07:47.591Z,280.00
2018-09-08T07:08:50.410Z,284.00
2018-09-08T07:09:47.542Z,296.00
2018-09-08T07:10:47.525Z,304.00
2018-09-08T07:11:47.506Z,296.00
2018-09-08T07:12:47.535Z,304.00
2018-09-08T07:13:47.474Z,308.00
2018-09-08T07:14:47.470Z,316.00
2018-09-08T07:15:47.441Z,320.00
2018-09-08T07:16:47.428Z,328.00
2018-09-08T07:17:47.437Z,336.00
2018-09-08T07:18:47.387Z,324.00
2018-09-08T07:19:47.369Z,328.00
2018-09-08T07:20:47.352Z,336.00
2018-09-08T07:21:47.335Z,344.00
2018-09-08T07:22:47.320Z,352.00
2018-09-08T07:23:47.319Z,352.00
2018-09-08T07:24:47.343Z,344.00
2018-09-08T07:25:47.266Z,348.00
2018-09-08T07:26:47.256Z,344.00
2018-09-08T07:27:47.240Z,340.00
2018-09-08T07:28:47.235Z,340.00
2018-09-08T07:29:47.204Z,340.00
2018-09-08T07:30:47.186Z,352.00
2018-09-08T07:31:47.170Z,356.00
2018-09-08T07:32:47.152Z,376.00
2018-09-08T07:33:47.154Z,408.00
2018-09-08T07:34:47.124Z,440.00
2018-09-08T07:35:47.114Z,464.00
2018-09-08T07:36:49.915Z,488.00
2018-09-08T07:37:47.067Z,500.00
2018-09-08T07:38:47.058Z,456.00
2018-09-08T07:39:47.062Z,468.00
2018-09-08T07:40:47.014Z,464.00
2018-09-08T07:41:47.009Z,452.00
2018-09-08T07:42:47.007Z,448.00
2018-09-08T07:43:47.935Z,436.00
2018-09-08T07:44:50.048Z,416.00
2018-09-08T07:45:46.949Z,440.00
2018-09-08T07:46:46.921Z,452.00
2018-09-08T07:47:47.492Z,472.00
2018-09-08T07:48:46.881Z,508.00
2018-09-08T07:49:46.870Z,520.00
2018-09-08T07:50:46.867Z,576.00
2018-09-08T07:51:46.833Z,584.00
2018-09-08T07:52:46.833Z,556.00
2018-09-08T07:53:46.839Z,536.00
2018-09-08T07:54:46.805Z,508.00
2018-09-08T07:55:46.784Z,460.00
2018-09-08T07:56:46.759Z,456.00
2018-09-08T07:57:46.788Z,456.00
2018-09-08T07:58:46.714Z,464.00
2018-09-08T07:59:46.700Z,476.00
2018-09-08T08:00:46.701Z,508.00
2018-09-08T08:01:46.683Z,520.00
2018-09-08T08:02:47.011Z,512.00
2018-09-08T08:03:46.635Z,532.00
2018-09-08T08:04:46.623Z,516.00
2018-09-08T08:05:46.765Z,532.00
2018-09-08T08:06:46.635Z,552.00
2018-09-08T08:07:46.569Z,568.00
2018-09-08T08:08:46.573Z,576.00
2018-09-08T08:09:46.544Z,592.00
2018-09-08T08:10:46.548Z,604.00
2018-09-08T08:11:46.530Z,632.00
2018-09-08T08:12:46.493Z,636.00
2018-09-08T08:13:46.495Z,632.00
2018-09-08T08:14:46.460Z,644.00
2018-09-08T08:15:46.441Z,620.00
2018-09-08T08:16:46.424Z,628.00
2018-09-08T08:17:46.430Z,636.00
2018-09-08T08:18:47.924Z,652.00
2018-09-08T08:19:46.389Z,660.00
2018-09-08T08:20:46.371Z,684.00
2018-09-08T08:21:46.358Z,692.00
2018-09-08T08:22:46.331Z,700.00
2018-09-08T08:23:46.317Z,700.00
2018-09-08T08:24:46.319Z,680.00
2018-09-08T08:25:46.377Z,664.00
2018-09-08T08:26:46.267Z,632.00
2018-09-08T08:27:46.302Z,632.00
2018-09-08T08:28:46.239Z,636.00
2018-09-08T08:29:46.222Z,620.00
2018-09-08T08:30:46.199Z,636.00
2018-09-08T08:31:46.186Z,704.00
2018-09-08T08:32:46.188Z,708.00
2018-09-08T08:33:46.185Z,716.00
2018-09-08T08:34:46.159Z,744.00
2018-09-08T08:35:46.124Z,756.00
2018-09-08T08:36:46.106Z,772.00
2018-09-08T08:37:46.108Z,808.00
2018-09-08T08:38:46.080Z,848.00
2018-09-08T08:39:46.062Z,884.00
2018-09-08T08:40:46.071Z,872.00
2018-09-08T08:41:46.028Z,696.00
2018-09-08T08:42:46.028Z,756.00
2018-09-08T08:43:46.013Z,732.00
2018-09-08T08:44:45.986Z,896.00
2018-09-08T08:45:45.969Z,788.00
2018-09-08T08:46:45.951Z,1044.00
2018-09-08T08:47:45.954Z,1292.00
2018-09-08T08:48:45.925Z,932.00
2018-09-08T08:49:45.954Z,868.00
2018-09-08T08:50:45.908Z,844.00
2018-09-08T08:51:45.895Z,880.00
2018-09-08T08:52:45.862Z,852.00
2018-09-08T08:53:45.846Z,900.00
2018-09-08T08:54:45.829Z,932.00
2018-09-08T08:55:45.861Z,840.00
2018-09-08T08:56:45.807Z,1024.00
2018-09-08T08:57:45.803Z,988.00
2018-09-08T08:58:45.770Z,964.00
2018-09-08T08:59:45.777Z,1124.00
2018-09-08T09:00:45.742Z,1420.00
2018-09-08T09:01:45.720Z,1216.00
2018-09-08T09:02:45.724Z,896.00
2018-09-08T09:03:45.691Z,1612.00
2018-09-08T09:04:45.674Z,1644.00
2018-09-08T09:05:45.665Z,3856.00
2018-09-08T09:06:45.689Z,6164.00
2018-09-08T09:07:45.634Z,4972.00
2018-09-08T09:08:45.936Z,7976.00
2018-09-08T09:09:45.640Z,5260.00
2018-09-08T09:10:45.590Z,8376.00
2018-09-08T09:11:45.584Z,9440.00
2018-09-08T09:12:45.629Z,10916.00
2018-09-08T09:13:45.541Z,10708.00
2018-09-08T09:14:45.531Z,11484.00
2018-09-08T09:15:45.531Z,900.00
2018-09-08T09:16:45.500Z,12040.00
2018-09-08T09:17:45.507Z,12048.00
2018-09-08T09:18:45.828Z,11260.00
2018-09-08T09:19:45.475Z,9280.00
2018-09-08T09:20:45.443Z,11840.00
2018-09-08T09:21:45.448Z,11732.00
2018-09-08T09:22:45.419Z,9492.00
2018-09-08T09:23:45.431Z,9232.00
2018-09-08T09:24:45.588Z,1860.00
2018-09-08T09:25:45.386Z,11096.00
2018-09-08T09:26:45.377Z,7200.00
2018-09-08T09:27:45.360Z,8116.00
2018-09-08T09:28:45.350Z,12072.00
2018-09-08T09:29:45.369Z,13104.00
2018-09-08T09:30:45.337Z,13044.00
2018-09-08T09:31:45.313Z,10608.00
2018-09-08T09:32:45.312Z,13356.00
2018-09-08T09:33:45.296Z,13320.00
2018-09-08T09:34:45.308Z,13312.00
2018-09-08T09:35:45.293Z,13276.00
2018-09-08T09:36:45.260Z,13700.00
2018-09-08T09:37:45.245Z,13912.00
2018-09-08T09:38:45.260Z,13808.00
2018-09-08T09:39:45.230Z,13452.00
2018-09-08T09:40:45.221Z,12044.00
2018-09-08T09:41:45.229Z,11720.00
2018-09-08T09:42:45.200Z,10040.00
2018-09-08T09:43:45.189Z,11380.00
2018-09-08T09:44:45.183Z,11932.00
2018-09-08T09:45:45.172Z,9724.00
2018-09-08T09:46:45.173Z,8208.00
2018-09-08T09:47:45.149Z,6148.00
2018-09-08T09:48:45.139Z,7268.00
2018-09-08T09:49:45.993Z,12132.00
2018-09-08T09:50:45.138Z,12988.00
2018-09-08T09:51:45.112Z,13080.00
2018-09-08T09:52:45.103Z,13500.00
2018-09-08T09:53:45.103Z,13324.00
2018-09-08T09:54:45.087Z,13312.00
2018-09-08T09:55:45.090Z,13440.00
2018-09-08T09:56:45.093Z,13628.00
2018-09-08T09:57:45.061Z,1712.00
2018-09-08T09:58:45.049Z,13560.00
2018-09-08T09:59:45.039Z,12940.00
2018-09-08T10:00:45.052Z,13368.00
2018-09-08T10:01:45.026Z,10380.00
2018-09-08T10:02:45.018Z,13360.00
2018-09-08T10:03:45.036Z,1428.00
2018-09-08T10:04:44.999Z,12336.00
2018-09-08T10:05:44.983Z,12568.00
2018-09-08T10:06:44.998Z,12996.00
2018-09-08T10:07:44.965Z,13112.00
2018-09-08T10:08:44.955Z,12424.00
2018-09-08T10:09:44.969Z,6140.00
2018-09-08T10:10:44.946Z,11740.00
2018-09-08T10:11:48.959Z,10464.00
2018-09-08T10:12:44.944Z,12788.00
2018-09-08T10:13:44.918Z,13268.00
2018-09-08T10:14:44.906Z,13456.00
2018-09-08T10:15:44.897Z,13636.00
2018-09-08T10:16:44.904Z,13568.00
2018-09-08T10:17:44.877Z,13884.00
2018-09-08T10:18:45.060Z,12720.00
2018-09-08T10:19:44.863Z,13020.00
2018-09-08T10:20:44.852Z,13548.00
2018-09-08T10:21:44.851Z,13468.00
2018-09-08T10:22:44.836Z,13140.00
2018-09-08T10:24:04.345Z,13184.00
2018-09-08T10:24:44.823Z,12796.00
2018-09-08T10:25:44.811Z,1636.00
2018-09-08T10:26:44.807Z,2020.00
2018-09-08T10:27:44.794Z,13796.00
2018-09-08T10:28:44.832Z,2444.00
2018-09-08T10:29:44.780Z,1188.00
2018-09-08T10:30:44.771Z,924.00
2018-09-08T10:31:45.284Z,2592.00
2018-09-08T10:32:44.756Z,996.00
2018-09-08T10:33:44.776Z,776.00
2018-09-08T10:34:44.748Z,744.00
2018-09-08T10:35:44.732Z,728.00
2018-09-08T10:36:44.715Z,628.00
2018-09-08T10:37:44.710Z,624.00
2018-09-08T10:38:44.723Z,836.00
2018-09-08T10:39:44.693Z,12104.00
2018-09-08T10:40:44.688Z,13688.00
2018-09-08T10:41:44.683Z,11544.00
2018-09-08T10:42:44.664Z,12460.00
2018-09-08T10:43:44.663Z,12840.00
2018-09-08T10:44:44.640Z,10608.00
2018-09-08T10:45:44.630Z,1832.00
2018-09-08T10:46:44.620Z,1364.00
2018-09-08T10:47:44.611Z,12272.00
2018-09-08T10:48:44.623Z,13576.00
2018-09-08T10:49:44.589Z,4472.00
2018-09-08T10:50:44.594Z,1156.00
2018-09-08T10:51:44.578Z,1344.00
2018-09-08T10:52:44.559Z,12680.00
2018-09-08T10:53:44.563Z,10344.00
2018-09-08T10:54:44.541Z,10092.00
2018-09-08T10:55:44.544Z,6516.00
2018-09-08T10:56:44.551Z,764.00
2018-09-08T10:57:44.508Z,788.00
2018-09-08T10:58:44.496Z,720.00
2018-09-08T10:59:45.978Z,872.00
2018-09-08T11:00:44.496Z,1012.00
2018-09-08T11:01:46.048Z,1248.00
2018-09-08T11:02:44.807Z,2012.00
2018-09-08T11:03:44.448Z,7112.00
2018-09-08T11:04:44.505Z,7324.00
2018-09-08T11:05:44.427Z,1048.00
2018-09-08T11:06:44.416Z,916.00
2018-09-08T11:07:44.423Z,768.00
2018-09-08T11:08:45.059Z,3200.00
2018-09-08T11:09:44.399Z,960.00
2018-09-08T11:10:44.385Z,860.00
2018-09-08T11:11:44.390Z,720.00
2018-09-08T11:12:44.349Z,812.00
2018-09-08T11:13:44.340Z,1016.00
2018-09-08T11:14:44.325Z,8612.00
2018-09-08T11:15:44.341Z,7920.00
2018-09-08T11:16:44.297Z,8456.00
2018-09-08T11:17:44.289Z,8228.00
2018-09-08T11:18:44.296Z,1024.00
2018-09-08T11:19:44.266Z,800.00
2018-09-08T11:20:44.449Z,752.00
2018-09-08T11:21:44.264Z,712.00
2018-09-08T11:22:44.231Z,640.00
2018-09-08T11:23:44.218Z,496.00
2018-09-08T11:24:44.208Z,468.00
2018-09-08T11:25:44.199Z,412.00
2018-09-08T11:26:44.221Z,364.00
2018-09-08T11:27:44.175Z,376.00
2018-09-08T11:28:44.164Z,496.00
2018-09-08T11:29:44.210Z,660.00
2018-09-08T11:30:45.031Z,1432.00
2018-09-08T11:31:44.394Z,7384.00
2018-09-08T11:32:44.123Z,8144.00
2018-09-08T11:33:44.106Z,7732.00
2018-09-08T11:34:44.096Z,6840.00
2018-09-08T11:35:44.084Z,1368.00
2018-09-08T11:36:44.992Z,3244.00
2018-09-08T11:37:44.073Z,8412.00
2018-09-08T11:38:44.054Z,6944.00
2018-09-08T11:39:44.032Z,7080.00
2018-09-08T11:40:44.060Z,6488.00
2018-09-08T11:41:44.992Z,6176.00
2018-09-08T11:42:44.011Z,4520.00
2018-09-08T11:43:43.994Z,4500.00
2018-09-08T11:44:44.026Z,6208.00
2018-09-08T11:45:43.975Z,5104.00
2018-09-08T11:46:43.984Z,5976.00
2018-09-08T11:47:44.180Z,5432.00
2018-09-08T11:48:43.951Z,6280.00
2018-09-08T11:49:44.058Z,3608.00
2018-09-08T11:50:43.931Z,4160.00
2018-09-08T11:51:43.927Z,2288.00
2018-09-08T11:52:43.919Z,1424.00
2018-09-08T11:53:43.920Z,1628.00
2018-09-08T11:54:43.903Z,1132.00
2018-09-08T11:55:43.974Z,1172.00
2018-09-08T11:56:43.888Z,1456.00
2018-09-08T11:57:43.875Z,1388.00
2018-09-08T11:58:43.896Z,5548.00
2018-09-08T11:59:43.873Z,1388.00
2018-09-08T12:00:43.856Z,3024.00
2018-09-08T12:01:43.852Z,3136.00
2018-09-08T12:02:43.906Z,3752.00
2018-09-08T12:03:43.833Z,2276.00
2018-09-08T12:04:44.564Z,1244.00
2018-09-08T12:05:43.813Z,2056.00
2018-09-08T12:06:43.806Z,4104.00
2018-09-08T12:07:43.795Z,7680.00
2018-09-08T12:08:43.799Z,4932.00
2018-09-08T12:09:43.775Z,4548.00
2018-09-08T12:10:43.813Z,5392.00
2018-09-08T12:11:43.766Z,988.00
2018-09-08T12:12:43.755Z,784.00
2018-09-08T12:13:43.833Z,704.00
2018-09-08T12:14:43.725Z,764.00
2018-09-08T12:15:43.743Z,960.00
2018-09-08T12:16:43.727Z,872.00
2018-09-08T12:17:43.706Z,3556.00
2018-09-08T12:18:43.697Z,3272.00
2018-09-08T12:19:43.705Z,3084.00
2018-09-08T12:20:43.680Z,2708.00
2018-09-08T12:21:44.506Z,4956.00
2018-09-08T12:22:43.653Z,4044.00
2018-09-08T12:23:43.645Z,824.00
2018-09-08T12:24:43.652Z,4548.00
2018-09-08T12:25:43.635Z,5220.00
2018-09-08T12:26:43.625Z,6976.00
2018-09-08T12:27:43.603Z,6288.00
2018-09-08T12:28:43.607Z,6056.00
2018-09-08T12:29:43.599Z,5828.00
2018-09-08T12:30:43.711Z,2744.00
2018-09-08T12:31:43.571Z,1244.00
2018-09-08T12:32:43.557Z,4032.00
2018-09-08T12:33:43.554Z,2728.00
2018-09-08T12:34:43.550Z,5008.00
2018-09-08T12:35:43.544Z,4652.00
2018-09-08T12:36:43.538Z,1068.00
2018-09-08T12:37:43.510Z,808.00
2018-09-08T12:38:43.547Z,988.00
2018-09-08T12:39:43.512Z,1368.00
2018-09-08T12:40:46.085Z,2896.00
2018-09-08T12:41:43.475Z,2456.00